• Join FlightAware (Why Join?)
  • Login
  • US Flag 
09:59PM EST


 

Airport Tracker/Info


-or-


 

Live Flight TrackerFlight Track Log ✈ LXJ342 ✈ 29-Jun-2013 ✈ KBBG - KASE

Flight Track Log - Related Links

Times and Time Zones

All times are in EDT time to prevent confusion due to time zone crossing. See the LXJ342 flight status page for this flight to view local times or setup timezone preferences in your user account.

Time Position Orientation Groundspeed Altitude Reporting Facility
EDT Latitude Longitude Course Direction KTS MPH feet Rate Location/Type
10:51AM 36.6081 -93.2753 243° Southwest 189 217 5,700  Level Memphis Center
10:52AM 36.5831 -93.3650 251° West 457 526 9,100 3,600 Climbing Memphis Center
10:53AM 36.5372 -93.4511 236° Southwest 359 413 13,000 3,300 Climbing Memphis Center
10:54AM 36.4931 -93.5500 241° Southwest 336 387 15,800 2,760 Climbing Memphis Center
10:55AM 36.4508 -93.6542 243° Southwest 336 387 18,600 2,700 Climbing Memphis Center
10:56AM 36.4331 -93.6989 244° Southwest 343 395 19,900 2,160 Climbing Kansas City Center
10:57AM 36.3154 -93.9031 243° Southwest  Level FlightAware Approximate
10:57AM 36.3872 -93.8036 241° Southwest 351 404 22,000  Level Kansas City Center
10:58AM 36.3369 -93.9175 241° Southwest 363 418 24,000 1,800 Climbing Kansas City Center
10:59AM 36.2844 -94.0344 241° Southwest 381 438 25,800 1,680 Climbing Kansas City Center
11:00AM 36.2592 -94.1086 247° West 393 452 26,800 1,500 Climbing Kansas City Center
11:00AM 36.2803 -94.2136 284° West 359 413 28,000 1,260 Climbing Memphis Center
11:03AM 36.4131 -94.4922 301° West 395 455 30,800 1,260 Climbing Kansas City Center
11:04AM 36.4681 -94.6131 300° West 400 460 32,300 1,200 Climbing Kansas City Center
11:05AM 36.5214 -94.7325 299° West 398 458 33,300 1,080 Climbing Kansas City Center
11:06AM 36.5753 -94.8511 300° West 397 457 34,600 1,320 Climbing Kansas City Center
11:07AM 36.6383 -94.9917 299° West 393 452 36,100 1,440 Climbing Kansas City Center
11:08AM 36.6892 -95.1061 299° West 385 443 37,600 1,200 Climbing Kansas City Center
11:09AM 36.7372 -95.2125 299° West 364 419 38,600 780 Climbing Kansas City Center
11:10AM 36.7853 -95.3208 299° West 360 414 39,300 480 Climbing Kansas City Center
11:11AM 36.8336 -95.4300 299° West 361 415 39,600 300 Climbing Kansas City Center
11:12AM 36.8817 -95.5439 298° West 369 425 40,000 180 Climbing Kansas City Center
11:13AM 36.9414 -95.6819 298° West 377 434 40,000  Level Kansas City Center
11:14AM 36.9919 -95.8000 298° West 384 442 40,000  Level Kansas City Center
11:15AM 37.0436 -95.9197 298° West 390 449 40,000  Level Kansas City Center
11:16AM 37.0944 -96.0392 298° West 391 450 40,000  Level Kansas City Center
11:17AM 37.1453 -96.1600 298° West 392 451 40,000  Level Kansas City Center
11:18AM 37.1969 -96.2794 299° West 391 450 40,000  Level Kansas City Center
11:19AM 37.2578 -96.4242 298° West 391 450 40,000  Level Kansas City Center
11:20AM 37.3075 -96.5378 299° West 392 451 40,000  Level Kansas City Center
11:21AM 37.3575 -96.6567 298° West 388 447 40,000  Level Kansas City Center
11:22AM 37.4072 -96.7753 298° West 386 444 40,000  Level Kansas City Center
11:23AM 37.4600 -96.8953 299° West 389 448 40,000  Level Kansas City Center
11:24AM 37.5197 -97.0386 298° West 387 445 40,000  Level Kansas City Center
11:25AM 37.5697 -97.1581 298° West 387 445 40,000  Level Kansas City Center
11:26AM 37.6197 -97.2792 298° West 389 448 40,000  Level Kansas City Center
11:27AM 37.6697 -97.4008 297° West 390 449 40,000  Level Kansas City Center
11:28AM 37.7233 -97.5350 297° West 388 447 40,000  Level Kansas City Center
11:30AM 37.7747 -97.6567 298° West 390 449 40,000  Level Kansas City Center
11:31AM 37.8253 -97.7781 298° West 391 450 40,000  Level Kansas City Center
11:32AM 37.8778 -97.9003 299° West 392 451 40,000  Level Kansas City Center
11:33AM 37.9303 -98.0303 297° West 400 460 40,000  Level Kansas City Center
11:34AM 37.9914 -98.1717 299° West 395 455 40,000  Level Kansas City Center
11:35AM 38.0425 -98.2922 298° West 389 448 40,000  Level Kansas City Center
11:36AM 38.0958 -98.4144 299° West 393 452 40,000  Level Kansas City Center
11:37AM 38.1469 -98.5364 298° West 392 451 40,000  Level Kansas City Center
11:38AM 38.1969 -98.6589 297° West 392 451 40,000  Level Kansas City Center
11:39AM 38.2483 -98.7819 298° West 394 453 40,000  Level Kansas City Center
11:40AM 38.3000 -98.9053 298° West 394 453 40,000  Level Kansas City Center
11:41AM 38.3592 -99.0536 297° West 393 452 40,000  Level Kansas City Center
11:42AM 38.4111 -99.1778 298° West 395 455 40,000  Level Kansas City Center
11:43AM 38.4606 -99.3008 297° West 392 451 40,000  Level Kansas City Center
11:44AM 38.5106 -99.4261 297° West 395 455 40,000  Level Kansas City Center
11:45AM 38.5686 -99.5703 297° West 395 455 40,000  Level Kansas City Center
11:46AM 38.6161 -99.6897 297° West 395 455 40,000  Level Kansas City Center
11:47AM 38.6717 -99.8306 297° West 397 457 40,000  Level Kansas City Center
11:48AM 38.7197 -99.9519 297° West 399 459 40,000  Level Kansas City Center
11:49AM 38.7756 -100.0944 297° West 401 461 40,000  Level Kansas City Center
11:50AM 38.8306 -100.2333 297° West 400 460 40,000  Level Denver Center
11:51AM 38.8869 -100.3769 297° West 402 463 40,000  Level Denver Center
11:52AM 38.9350 -100.5008 297° West 404 465 40,000  Level Denver Center
11:53AM 38.9917 -100.6444 297° West 404 465 40,000  Level Denver Center
11:54AM 39.0369 -100.7656 296° West 408 470 40,000  Level Denver Center
11:56AM 39.0931 -100.9097 297° West 403 464 40,000  Level Denver Center
11:57AM 39.1403 -101.0372 296° West 409 471 40,000  Level Denver Center
11:58AM 39.1964 -101.1833 296° West 407 468 40,000  Level Denver Center
11:59AM 39.2442 -101.3094 296° West 409 471 40,000  Level Denver Center
12:00PM 39.2997 -101.4542 296° West 406 467 40,000  Level Denver Center
12:01PM 39.3469 -101.5794 296° West 406 467 40,000  Level Denver Center
12:02PM 39.3917 -101.7319 291° West 408 470 40,000  Level Denver Center
12:03PM 39.4083 -101.8731 279° West 413 475 40,000  Level Denver Center
12:04PM 39.4250 -102.0164 279° West 418 481 40,000  Level Denver Center
12:05PM 39.4428 -102.1803 278° West 414 476 40,000  Level Denver Center
12:06PM 39.4594 -102.3239 279° West 419 482 40,000  Level Denver Center
12:07PM 39.4781 -102.4928 278° West 413 475 40,000  Level Denver Center
12:08PM 39.4958 -102.6397 279° West 414 476 40,000  Level Denver Center
12:09PM 39.5094 -102.7872 277° West 414 476 40,000  Level Denver Center
12:10PM 39.5264 -102.9344 279° West 414 476 40,000  Level Denver Center
12:11PM 39.5406 -103.0822 277° West 415 478 40,000  Level Denver Center
12:12PM 39.5567 -103.2297 278° West 415 478 40,000  Level Denver Center
12:13PM 39.5744 -103.4072 277° West 415 478 40,000 -540 Level Denver Center
12:14PM 39.5900 -103.5556 278° West 417 480 39,000 -1,080 Descending Denver Center
12:15PM 39.6047 -103.7039 277° West 417 480 37,800 -1,260 Descending Denver Center
12:16PM 39.6192 -103.8569 277° West 427 491 36,400 -1,380 Descending Denver Center
12:17PM 39.6342 -104.0106 277° West 431 496 35,000 -1,200 Descending Denver Center
12:18PM 39.6517 -104.1908 277° West 419 482 34,000 -540 Descending Denver Center
12:19PM 39.6650 -104.3439 277° West 430 495 34,000  Level Denver Center
12:20PM 39.6789 -104.4981 277° West 436 502 34,000  Level Denver Center
12:21PM 39.6875 -104.6522 274° West 436 502 34,000  Level Denver Center
12:22PM 39.6683 -104.8422 263° West 449 517 34,000  Level Denver Center
12:23PM 39.6503 -105.0022 262° West 454 522 34,000  Level Denver Center
12:24PM 39.6336 -105.1628 262° West 449 517 34,000  Level Denver Center
12:26PM 39.6267 -105.3208 267° West 437 503 34,000  Level Denver Center
12:27PM 39.6258 -105.4806 270° West 442 509 34,000  Level Denver Center
12:28PM 39.6339 -105.6689 273° West 439 505 34,000  Level Denver Center
12:29PM 39.6281 -105.8258 267° West 447 514 34,000 -600 Level Denver Center
12:30PM 39.6033 -105.9817 258° West 444 511 32,800 -1,860 Descending Denver Center
12:31PM 39.5753 -106.1389 257° West 448 516 30,200 -3,000 Descending Denver Center
12:32PM 39.5461 -106.3042 257° West 442 509 26,600 -3,720 Descending Denver Center
12:33PM 39.5169 -106.4567 256° West 437 503 22,600 -3,240 Descending Denver Center
12:34PM 39.4889 -106.6169 257° West 404 465 20,000 -2,100 Descending Denver Center
12:35PM 39.4911 -106.7239 272° West 323 372 18,300 -1,140 Descending Denver Center
12:36PM 39.5353 -106.7942 309° West 263 303 17,700 -1,080 Descending Denver Center
12:37PM 39.5436 -106.8881 277° West 229 264 16,100 -960 Descending Denver Center
12:38PM 39.5208 -106.9600 248° West 224 258 15,800 -480 Descending Denver Center
12:39PM 39.4636 -106.9792 194° South 240 276 15,200 -1,440 Descending Denver Center
12:40PM 39.3994 -106.9614 168° South 225 259 12,900 -2,340 Descending Denver Center
12:41PM 39.3436 -106.9408 164° South 217 250 10,400 -2,160 Descending Denver Center
12:42PM 39.2944 -106.9156 158° South 209 241 8,500 -1,080 Descending Denver Center
12:43PM 39.2653 -106.8517 121° Southeast 209 241 8,200 -300 Descending Denver Center